createdAt,value
2022-12-11T00:01:19.284Z,101037.31
2022-12-11T00:03:46.874Z,101036.31
2022-12-11T00:06:16.877Z,101043.22
2022-12-11T00:08:43.504Z,101052.69
2022-12-11T00:11:13.379Z,101047.50
2022-12-11T00:13:39.915Z,101051.16
2022-12-11T00:16:06.578Z,101038.38
2022-12-11T00:18:33.013Z,101036.53
2022-12-11T00:21:05.022Z,101041.66
2022-12-11T00:23:31.658Z,101016.91
2022-12-11T00:25:58.323Z,101037.38
2022-12-11T00:28:24.733Z,101032.22
2022-12-11T00:30:51.198Z,101033.19
2022-12-11T00:33:17.835Z,101031.50
2022-12-11T00:35:46.776Z,101042.63
2022-12-11T00:38:18.916Z,101040.88
2022-12-11T00:40:45.952Z,101041.78
2022-12-11T00:43:12.895Z,101034.97
2022-12-11T00:45:42.271Z,101035.75
2022-12-11T00:48:09.546Z,101040.09
2022-12-11T00:50:36.689Z,101026.38
2022-12-11T00:53:04.970Z,101041.84
2022-12-11T00:55:31.806Z,101038.38
2022-12-11T00:58:01.058Z,101027.34
2022-12-11T01:00:27.464Z,101033.34
2022-12-11T01:02:54.028Z,101039.50
2022-12-11T01:05:21.249Z,101038.59
2022-12-11T01:07:48.008Z,101037.75
2022-12-11T01:10:24.533Z,101044.75
2022-12-11T01:13:00.486Z,101047.19
2022-12-11T01:15:37.464Z,101030.97
2022-12-11T01:18:06.512Z,101034.38
2022-12-11T01:20:36.496Z,101034.38
2022-12-11T01:23:03.147Z,101035.22
2022-12-11T01:25:29.647Z,101031.03
2022-12-11T01:27:56.242Z,101041.22
2022-12-11T01:30:24.912Z,101019.81
2022-12-11T01:32:52.272Z,101045.53
2022-12-11T01:35:19.720Z,101043.84
2022-12-11T01:37:47.418Z,101039.50
2022-12-11T01:40:15.935Z,101049.94
2022-12-11T01:42:42.661Z,101043.00
2022-12-11T01:45:38.928Z,101047.25
2022-12-11T01:48:09.320Z,101049.25
2022-12-11T01:50:58.193Z,101045.63
2022-12-11T01:53:33.290Z,101056.91
2022-12-11T01:56:00.272Z,101046.72
2022-12-11T01:58:33.865Z,101052.56
2022-12-11T02:01:02.517Z,101042.31
2022-12-11T02:03:29.003Z,101044.75
2022-12-11T02:06:01.440Z,101034.50
2022-12-11T02:08:28.480Z,101037.97
2022-12-11T02:11:06.013Z,101040.16
2022-12-11T02:13:56.412Z,101038.31
2022-12-11T02:16:34.827Z,101044.41
2022-12-11T02:19:40.103Z,101036.53
2022-12-11T02:22:10.603Z,101038.31
2022-12-11T02:24:47.989Z,101046.97
2022-12-11T02:27:21.445Z,101042.63
2022-12-11T02:30:02.473Z,101039.31
2022-12-11T02:32:51.873Z,101046.03
2022-12-11T02:35:34.646Z,101012.72
2022-12-11T02:38:05.632Z,101040.09
2022-12-11T02:40:36.806Z,101040.09
2022-12-11T02:43:07.168Z,101025.56
2022-12-11T02:45:35.409Z,101033.44
2022-12-11T02:48:03.957Z,101028.81
2022-12-11T02:50:31.008Z,101025.56
2022-12-11T02:53:00.661Z,101013.25
2022-12-11T02:55:29.678Z,101021.97
2022-12-11T02:58:17.963Z,101030.50
2022-12-11T03:00:46.350Z,101013.56
2022-12-11T03:03:13.834Z,101025.63
2022-12-11T03:05:41.885Z,101029.78
2022-12-11T03:08:08.726Z,101020.06
2022-12-11T03:10:35.239Z,101020.06
2022-12-11T03:13:02.829Z,101021.78
2022-12-11T03:15:37.388Z,101021.84
2022-12-11T03:18:29.894Z,101027.88
2022-12-11T03:21:09.314Z,101020.22
2022-12-11T03:23:49.628Z,101030.50
2022-12-11T03:26:19.462Z,101023.47
2022-12-11T03:28:48.135Z,101023.63
2022-12-11T03:31:27.741Z,101024.41
2022-12-11T03:34:01.180Z,101030.56
2022-12-11T03:36:34.651Z,101025.31
2022-12-11T03:39:13.311Z,101030.50
2022-12-11T03:41:41.093Z,101021.78
2022-12-11T03:44:09.060Z,101022.63
2022-12-11T03:46:39.518Z,101024.47
2022-12-11T03:49:10.656Z,101015.06
2022-12-11T03:51:38.912Z,101024.47
2022-12-11T03:54:06.580Z,101013.25
2022-12-11T03:56:36.796Z,101021.84
2022-12-11T03:59:03.122Z,101023.97
2022-12-11T04:01:29.879Z,101036.53
2022-12-11T04:03:56.585Z,101018.38
2022-12-11T04:06:23.178Z,101016.59
2022-12-11T04:08:49.626Z,101031.41
2022-12-11T04:11:34.349Z,101009.09
2022-12-11T04:14:28.157Z,101013.19
2022-12-11T04:16:55.536Z,100998.81
2022-12-11T04:19:41.382Z,101006.22
2022-12-11T04:22:27.921Z,101021.22
2022-12-11T04:24:54.418Z,101003.97
2022-12-11T04:27:39.412Z,101008.19
2022-12-11T04:30:11.305Z,101010.81
2022-12-11T04:32:37.742Z,101008.19
2022-12-11T04:35:06.180Z,101009.94
2022-12-11T04:37:33.031Z,100997.09
2022-12-11T04:39:59.423Z,101005.69
2022-12-11T04:42:25.824Z,101001.50
2022-12-11T04:44:52.247Z,101010.38
2022-12-11T04:47:18.786Z,101024.94
2022-12-11T04:49:45.203Z,101012.94
2022-12-11T04:52:11.834Z,101011.16
2022-12-11T04:54:38.470Z,100998.56
2022-12-11T04:57:04.850Z,101013.78
2022-12-11T04:59:32.924Z,101004.34
2022-12-11T05:01:59.676Z,100994.00
2022-12-11T05:04:26.386Z,100999.19
2022-12-11T05:06:52.877Z,100999.19
2022-12-11T05:09:19.446Z,101004.28
2022-12-11T05:11:45.875Z,100992.38
2022-12-11T05:14:12.427Z,101006.22
2022-12-11T05:16:38.951Z,101006.22
2022-12-11T05:19:05.432Z,101003.81
2022-12-11T05:21:35.237Z,101007.81
2022-12-11T05:24:05.111Z,100997.78
2022-12-11T05:26:31.525Z,101015.00
2022-12-11T05:28:57.947Z,101017.41
2022-12-11T05:31:26.866Z,101008.59
2022-12-11T05:33:54.431Z,101007.69
2022-12-11T05:36:23.893Z,100985.56
2022-12-11T05:38:51.630Z,101012.00
2022-12-11T05:41:21.570Z,101004.72
2022-12-11T05:43:48.633Z,101010.22
2022-12-11T05:46:21.154Z,101002.56
2022-12-11T05:48:50.063Z,101001.81
2022-12-11T05:51:17.801Z,101014.56
2022-12-11T05:53:46.364Z,101015.41
2022-12-11T05:56:33.918Z,100996.31
2022-12-11T05:59:01.894Z,101010.09
2022-12-11T06:01:35.807Z,101010.16
2022-12-11T06:04:04.146Z,100994.47
2022-12-11T06:06:30.671Z,101003.00
2022-12-11T06:08:59.229Z,101010.88
2022-12-11T06:11:28.281Z,101007.31
2022-12-11T06:13:55.660Z,101001.38
2022-12-11T06:16:22.678Z,101007.47
2022-12-11T06:18:49.355Z,101010.88
2022-12-11T06:21:21.639Z,101002.16
2022-12-11T06:23:50.215Z,101007.47
2022-12-11T06:26:18.071Z,101002.44
2022-12-11T06:28:44.927Z,101006.97
2022-12-11T06:31:11.510Z,100997.13
2022-12-11T06:33:38.318Z,101005.06
2022-12-11T06:36:13.974Z,101015.75
2022-12-11T06:38:40.718Z,101015.28
2022-12-11T06:41:08.707Z,101007.94
2022-12-11T06:43:37.399Z,100997.03
2022-12-11T06:46:08.994Z,100992.47
2022-12-11T06:48:35.509Z,100994.03
2022-12-11T06:51:22.613Z,101002.22
2022-12-11T06:53:54.036Z,101003.88
2022-12-11T06:56:21.578Z,101004.41
2022-12-11T06:58:48.348Z,100981.09
2022-12-11T07:01:20.871Z,100991.25
2022-12-11T07:03:47.828Z,101008.19
2022-12-11T07:06:14.933Z,101004.41
2022-12-11T07:08:42.103Z,101022.00
2022-12-11T07:11:11.517Z,101020.81
2022-12-11T07:13:38.499Z,101034.22
2022-12-11T07:16:10.529Z,101040.69
2022-12-11T07:18:43.186Z,101041.06
2022-12-11T07:21:12.162Z,101041.47
2022-12-11T07:23:38.654Z,101014.34
2022-12-11T07:26:06.521Z,101023.31
2022-12-11T07:28:33.945Z,101026.94
2022-12-11T07:31:04.976Z,101029.81
2022-12-11T07:33:31.366Z,101029.25
2022-12-11T07:36:02.114Z,101014.06
2022-12-11T07:38:28.632Z,101037.50
2022-12-11T07:40:55.084Z,101038.66
2022-12-11T07:43:21.543Z,101033.66
2022-12-11T07:45:48.074Z,101014.91
2022-12-11T07:48:14.504Z,101051.84
2022-12-11T07:50:41.028Z,101046.88
2022-12-11T07:53:07.739Z,101057.25
2022-12-11T07:55:34.201Z,101059.06
2022-12-11T07:58:00.607Z,101030.13
2022-12-11T08:00:27.064Z,101023.97
2022-12-11T08:02:53.480Z,101053.25
2022-12-11T08:05:19.966Z,101051.63
2022-12-11T08:07:47.044Z,101047.34
2022-12-11T08:10:13.532Z,101043.16
2022-12-11T08:12:39.972Z,101050.06
2022-12-11T08:15:07.262Z,101035.75
2022-12-11T08:17:39.833Z,101061.56
2022-12-11T08:20:07.301Z,101057.94
2022-12-11T08:22:34.203Z,101044.94
2022-12-11T08:25:00.633Z,101051.00
2022-12-11T08:27:27.034Z,101028.50
2022-12-11T08:29:53.499Z,101028.50
2022-12-11T08:32:19.932Z,101044.03
2022-12-11T08:34:46.476Z,101028.41
2022-12-11T08:37:13.598Z,101034.38
2022-12-11T08:39:40.031Z,101037.63
2022-12-11T08:42:07.187Z,101030.81
2022-12-11T08:44:33.864Z,101041.94
2022-12-11T08:47:00.326Z,101046.97
2022-12-11T08:49:32.696Z,101036.47
2022-12-11T08:52:00.755Z,101047.44
2022-12-11T08:54:27.179Z,101041.97
2022-12-11T08:56:57.704Z,101029.66
2022-12-11T08:59:25.658Z,101041.41
2022-12-11T09:01:52.289Z,101034.19
2022-12-11T09:04:18.728Z,101036.69
2022-12-11T09:06:45.104Z,101041.72
2022-12-11T09:09:12.587Z,101021.41
2022-12-11T09:11:39.182Z,101031.34
2022-12-11T09:14:07.932Z,101030.22
2022-12-11T09:16:37.725Z,101039.34
2022-12-11T09:19:04.450Z,101023.28
2022-12-11T09:21:30.973Z,101029.25
2022-12-11T09:23:59.362Z,101035.84
2022-12-11T09:26:26.961Z,101009.75
2022-12-11T09:28:54.255Z,101016.19
2022-12-11T09:31:26.899Z,101027.88
2022-12-11T09:34:00.811Z,101021.38
2022-12-11T09:36:28.041Z,101023.66
2022-12-11T09:39:01.149Z,101012.00
2022-12-11T09:41:51.842Z,101008.94
2022-12-11T09:44:48.476Z,101004.16
2022-12-11T09:47:21.075Z,101010.06
2022-12-11T09:49:51.332Z,101005.50
2022-12-11T09:52:29.491Z,101006.13
2022-12-11T09:55:01.810Z,100995.09
2022-12-11T09:57:39.359Z,100984.06
2022-12-11T10:00:14.624Z,101006.66
2022-12-11T10:02:50.157Z,101007.59
2022-12-11T10:05:29.791Z,101011.03
2022-12-11T10:08:22.565Z,100997.69
2022-12-11T10:11:00.733Z,101006.09
2022-12-11T10:14:08.649Z,101002.88
2022-12-11T10:16:47.164Z,100992.66
2022-12-11T10:19:34.739Z,100992.53
2022-12-11T10:22:02.239Z,100997.44
2022-12-11T10:25:12.606Z,100992.13
2022-12-11T10:27:39.252Z,100990.06
2022-12-11T10:30:15.594Z,100987.94
2022-12-11T10:32:59.813Z,100984.72
2022-12-11T10:35:35.710Z,100983.94
2022-12-11T10:38:21.132Z,100971.72
2022-12-11T10:40:52.941Z,100976.72
2022-12-11T10:43:19.386Z,100972.94
2022-12-11T10:45:55.283Z,100968.84
2022-12-11T10:48:22.229Z,100967.31
2022-12-11T10:51:02.613Z,100966.88
2022-12-11T10:53:31.283Z,100969.59
2022-12-11T10:56:00.936Z,100964.53
2022-12-11T10:58:34.263Z,100962.88
2022-12-11T11:01:09.059Z,100956.03
2022-12-11T11:03:41.015Z,100961.34
2022-12-11T11:06:19.207Z,100957.03
2022-12-11T11:08:54.879Z,100951.09
2022-12-11T11:11:26.847Z,100943.06
2022-12-11T11:14:07.421Z,100950.38
2022-12-11T11:16:37.993Z,100943.91
2022-12-11T11:19:06.354Z,100953.88
2022-12-11T11:21:34.806Z,100945.50
2022-12-11T11:24:01.362Z,100952.38
2022-12-11T11:27:04.428Z,100952.94
2022-12-11T11:29:29.098Z,100947.44
2022-12-11T11:31:55.583Z,100955.13
2022-12-11T11:34:22.343Z,100949.84
2022-12-11T11:36:58.128Z,100936.09
2022-12-11T11:39:45.149Z,100924.44
2022-12-11T11:42:50.396Z,100930.72
2022-12-11T11:45:44.379Z,100928.53
2022-12-11T11:48:34.244Z,100914.44
2022-12-11T11:51:21.027Z,100907.84
2022-12-11T11:53:50.918Z,100916.09
2022-12-11T11:56:21.181Z,100921.56
2022-12-11T11:58:56.085Z,100916.75
2022-12-11T12:01:22.641Z,100914.16
2022-12-11T12:03:50.357Z,100903.13
2022-12-11T12:06:52.077Z,100915.38
2022-12-11T12:09:27.745Z,100916.56
2022-12-11T12:12:20.917Z,100910.31
2022-12-11T12:14:54.578Z,100919.97
2022-12-11T12:17:37.953Z,100916.09
2022-12-11T12:20:13.448Z,100920.34
2022-12-11T12:22:52.250Z,100922.78
2022-12-11T12:26:12.701Z,100921.50
2022-12-11T12:28:57.776Z,100922.38
2022-12-11T12:32:01.481Z,100927.22
2022-12-11T12:34:43.725Z,100926.22
2022-12-11T12:37:34.815Z,100922.19
2022-12-11T12:40:26.198Z,100916.50
2022-12-11T12:42:55.316Z,100923.09
2022-12-11T12:45:49.585Z,100909.53
2022-12-11T12:48:16.574Z,100900.16
2022-12-11T12:50:49.382Z,100901.59
2022-12-11T12:53:23.721Z,100919.03
2022-12-11T12:55:51.807Z,100919.28
2022-12-11T12:58:28.453Z,100917.00
2022-12-11T13:01:06.490Z,100929.63
2022-12-11T13:03:37.970Z,100918.06
2022-12-11T13:06:13.529Z,100922.31
2022-12-11T13:08:49.657Z,100915.22
2022-12-11T13:11:18.593Z,100908.44
2022-12-11T13:14:05.257Z,100920.28
2022-12-11T13:16:38.342Z,100916.38
2022-12-11T13:19:22.623Z,100921.47
2022-12-11T13:22:03.833Z,100910.97
2022-12-11T13:24:34.156Z,100925.38
2022-12-11T13:27:22.074Z,100930.69
2022-12-11T13:29:48.688Z,100923.56
2022-12-11T13:32:18.070Z,100929.47
2022-12-11T13:34:53.614Z,100919.22
2022-12-11T13:37:47.252Z,100934.22
2022-12-11T13:40:27.454Z,100937.41
2022-12-11T13:43:01.209Z,100937.16
2022-12-11T13:45:37.283Z,100930.41
2022-12-11T13:48:05.825Z,100942.84
2022-12-11T13:50:34.556Z,100940.09
2022-12-11T13:53:02.877Z,100933.44
2022-12-11T13:55:34.579Z,100939.25
2022-12-11T13:58:01.456Z,100939.06
2022-12-11T14:00:32.112Z,100931.63
2022-12-11T14:03:04.496Z,100936.91
2022-12-11T14:05:31.217Z,100934.91
2022-12-11T14:08:02.347Z,100939.56
2022-12-11T14:10:32.392Z,100947.41
2022-12-11T14:13:31.162Z,100930.00
2022-12-11T14:15:57.740Z,100941.91
2022-12-11T14:18:29.096Z,100944.00
2022-12-11T14:20:57.976Z,100952.28
2022-12-11T14:23:36.032Z,100947.31
2022-12-11T14:26:24.538Z,100958.38
2022-12-11T14:28:52.109Z,100962.41
2022-12-11T14:31:30.967Z,100958.34
2022-12-11T14:34:33.615Z,100948.97
2022-12-11T14:37:02.663Z,100945.28
2022-12-11T14:39:41.189Z,100953.09
2022-12-11T14:42:12.780Z,100957.63
2022-12-11T14:45:23.820Z,100950.72
2022-12-11T14:47:52.775Z,100954.00
2022-12-11T14:50:19.108Z,100959.09
2022-12-11T14:52:53.427Z,100948.56
2022-12-11T14:55:30.850Z,100961.72
2022-12-11T14:58:02.683Z,100939.03
2022-12-11T15:00:37.502Z,100957.34
2022-12-11T15:03:27.498Z,100960.63
2022-12-11T15:05:56.690Z,100960.59
2022-12-11T15:08:30.171Z,100957.75
2022-12-11T15:11:13.413Z,100953.94
2022-12-11T15:13:55.599Z,100958.13
2022-12-11T15:16:24.682Z,100956.28
2022-12-11T15:18:53.642Z,100961.22
2022-12-11T15:21:29.511Z,100969.47
2022-12-11T15:23:58.391Z,100964.53
2022-12-11T15:26:47.844Z,100959.81
2022-12-11T15:29:35.518Z,100954.06
2022-12-11T15:32:03.540Z,100958.41
2022-12-11T15:34:35.308Z,100954.13
2022-12-11T15:37:02.108Z,100944.03
2022-12-11T15:39:28.558Z,100949.19
2022-12-11T15:41:55.017Z,100948.56
2022-12-11T15:44:23.712Z,100950.25
2022-12-11T15:46:50.639Z,100957.28
2022-12-11T15:49:18.900Z,100953.31
2022-12-11T15:51:45.898Z,100959.25
2022-12-11T15:54:12.349Z,100957.69
2022-12-11T15:56:39.965Z,100950.84
2022-12-11T15:59:06.952Z,100951.91
2022-12-11T16:01:33.796Z,100951.78
2022-12-11T16:04:04.918Z,100956.16
2022-12-11T16:06:31.970Z,100947.53
2022-12-11T16:08:58.619Z,100950.06
2022-12-11T16:11:25.047Z,100938.94
2022-12-11T16:13:51.479Z,100952.75
2022-12-11T16:16:17.895Z,100940.00
2022-12-11T16:18:44.362Z,100951.13
2022-12-11T16:21:10.764Z,100948.78
2022-12-11T16:23:37.346Z,100964.38
2022-12-11T16:26:09.580Z,100967.84
2022-12-11T16:28:36.031Z,100966.22
2022-12-11T16:31:02.793Z,100953.41
2022-12-11T16:33:29.347Z,100962.84
2022-12-11T16:35:55.790Z,100955.97
2022-12-11T16:38:22.223Z,100955.13
2022-12-11T16:40:48.719Z,100951.84
2022-12-11T16:43:15.199Z,100966.53
2022-12-11T16:45:43.202Z,100965.69
2022-12-11T16:48:09.637Z,100958.00
2022-12-11T16:50:39.797Z,100952.22
2022-12-11T16:53:06.360Z,100962.13
2022-12-11T16:55:32.735Z,100960.69
2022-12-11T16:57:59.142Z,100963.41
2022-12-11T17:00:25.645Z,100961.84
2022-12-11T17:02:52.072Z,100970.41
2022-12-11T17:05:18.901Z,100965.09
2022-12-11T17:07:45.365Z,100964.09
2022-12-11T17:10:11.891Z,100964.81
2022-12-11T17:12:38.954Z,100946.53
2022-12-11T17:15:05.947Z,100946.66
2022-12-11T17:17:32.364Z,100960.97
2022-12-11T17:19:58.951Z,100961.63
2022-12-11T17:22:25.354Z,100964.19
2022-12-11T17:24:51.816Z,100962.34
2022-12-11T17:27:18.236Z,100946.94
2022-12-11T17:29:44.907Z,100961.63
2022-12-11T17:32:11.689Z,100983.13
2022-12-11T17:34:38.881Z,100970.06
2022-12-11T17:37:06.176Z,100972.53
2022-12-11T17:39:32.594Z,100967.38
2022-12-11T17:41:59.028Z,100974.16
2022-12-11T17:44:26.771Z,100963.66
2022-12-11T17:46:53.649Z,100959.41
2022-12-11T17:49:20.187Z,100960.44
2022-12-11T17:51:46.719Z,100951.91
2022-12-11T17:54:13.673Z,100948.50
2022-12-11T17:56:40.821Z,100945.09
2022-12-11T17:59:07.248Z,100954.59
2022-12-11T18:01:34.052Z,100952.34
2022-12-11T18:04:01.835Z,100947.19
2022-12-11T18:06:29.455Z,100958.41
2022-12-11T18:08:56.873Z,100967.25
2022-12-11T18:11:23.865Z,100962.84
2022-12-11T18:13:51.823Z,100960.13
2022-12-11T18:16:19.738Z,100960.00
2022-12-11T18:18:47.654Z,100954.75
2022-12-11T18:21:17.127Z,100957.88
2022-12-11T18:23:44.097Z,100953.63
2022-12-11T18:26:11.543Z,100970.63
2022-12-11T18:28:37.946Z,100969.69
2022-12-11T18:31:04.751Z,100978.28
2022-12-11T18:33:32.137Z,100971.53
2022-12-11T18:35:58.752Z,100974.41
2022-12-11T18:38:25.278Z,100976.19
2022-12-11T18:40:51.661Z,100980.44
2022-12-11T18:43:18.095Z,100986.47
2022-12-11T18:45:47.806Z,100976.19
2022-12-11T18:48:15.131Z,100973.44
2022-12-11T18:50:49.234Z,100973.44
2022-12-11T18:53:17.010Z,100972.72
2022-12-11T18:55:45.506Z,100972.72
2022-12-11T18:58:14.304Z,100968.56
2022-12-11T19:00:42.172Z,100982.53
2022-12-11T19:03:09.860Z,100980.69
2022-12-11T19:05:36.518Z,100976.38
2022-12-11T19:08:03.743Z,100978.91
2022-12-11T19:10:30.190Z,100977.22
2022-12-11T19:12:56.988Z,100983.22
2022-12-11T19:15:25.533Z,100964.09
2022-12-11T19:17:52.068Z,100970.81
2022-12-11T19:20:47.497Z,100986.22
2022-12-11T19:23:05.805Z,100989.53
2022-12-11T19:25:32.652Z,100991.53
2022-12-11T19:27:59.140Z,100990.28
2022-12-11T19:30:25.638Z,100990.28
2022-12-11T19:32:52.042Z,100979.19
2022-12-11T19:35:18.639Z,100990.06
2022-12-11T19:37:45.086Z,100991.00
2022-12-11T19:40:11.935Z,101001.28
2022-12-11T19:42:38.572Z,100983.19
2022-12-11T19:45:05.377Z,100982.13
2022-12-11T19:47:31.989Z,100988.03
2022-12-11T19:49:58.402Z,100975.09
2022-12-11T19:52:24.832Z,100986.91
2022-12-11T19:54:51.279Z,100985.72
2022-12-11T19:57:17.754Z,100977.97
2022-12-11T19:59:44.179Z,100977.84
2022-12-11T20:02:12.179Z,100959.66
2022-12-11T20:04:38.633Z,100967.25
2022-12-11T20:07:05.129Z,100969.94
2022-12-11T20:09:33.544Z,100973.97
2022-12-11T20:11:59.931Z,100971.34
2022-12-11T20:14:27.184Z,100976.28
2022-12-11T20:17:11.860Z,100984.09
2022-12-11T20:19:39.461Z,100967.72
2022-12-11T20:22:06.092Z,100975.22
2022-12-11T20:24:32.992Z,100974.28
2022-12-11T20:27:00.155Z,100974.38
2022-12-11T20:29:26.651Z,100969.19
2022-12-11T20:31:53.110Z,100976.94
2022-12-11T20:34:20.111Z,100987.09
2022-12-11T20:36:49.385Z,100980.94
2022-12-11T20:39:15.739Z,100985.97
2022-12-11T20:41:42.306Z,100995.41
2022-12-11T20:44:08.739Z,100981.56
2022-12-11T20:46:35.245Z,100982.19
2022-12-11T20:49:01.748Z,100969.97
2022-12-11T20:51:28.970Z,100978.44
2022-12-11T20:53:59.450Z,100978.53
2022-12-11T20:56:28.840Z,100986.88
2022-12-11T20:58:55.883Z,100969.63
2022-12-11T21:01:24.544Z,100960.31
2022-12-11T21:03:52.945Z,100973.81
2022-12-11T21:06:31.014Z,100980.69
2022-12-11T21:08:59.216Z,100985.97
2022-12-11T21:11:25.893Z,100977.31
2022-12-11T21:13:53.829Z,100975.81
2022-12-11T21:16:20.755Z,100988.19
2022-12-11T21:18:48.251Z,100984.88
2022-12-11T21:21:15.138Z,100991.00
2022-12-11T21:23:41.823Z,100986.75
2022-12-11T21:26:08.591Z,100985.03
2022-12-11T21:28:35.850Z,100997.03
2022-12-11T21:31:10.766Z,100994.47
2022-12-11T21:33:37.563Z,100984.56
2022-12-11T21:36:06.866Z,100984.63
2022-12-11T21:38:33.534Z,100977.66
2022-12-11T21:41:10.751Z,100986.09
2022-12-11T21:43:42.808Z,100980.31
2022-12-11T21:46:26.777Z,100975.03
2022-12-11T21:48:54.024Z,100981.06
2022-12-11T21:51:29.745Z,100993.78
2022-12-11T21:54:00.741Z,100989.81
2022-12-11T21:56:28.683Z,100992.06
2022-12-11T21:58:55.405Z,100978.53
2022-12-11T22:01:26.408Z,100984.63
2022-12-11T22:03:53.525Z,100999.09
2022-12-11T22:06:20.571Z,100992.38
2022-12-11T22:08:49.083Z,101001.66
2022-12-11T22:11:19.094Z,101004.28
2022-12-11T22:13:47.830Z,100993.06
2022-12-11T22:16:14.311Z,100995.63
2022-12-11T22:18:40.844Z,100993.78
2022-12-11T22:21:07.737Z,101007.44
2022-12-11T22:23:34.201Z,100996.31
2022-12-11T22:26:00.950Z,100984.09
2022-12-11T22:28:27.520Z,100987.50
2022-12-11T22:30:54.001Z,100986.47
2022-12-11T22:33:21.821Z,100989.88
2022-12-11T22:36:03.507Z,101002.03
2022-12-11T22:38:29.928Z,100993.63
2022-12-11T22:40:56.369Z,100991.66
2022-12-11T22:43:22.769Z,100995.13
2022-12-11T22:45:49.416Z,100982.25
2022-12-11T22:48:16.017Z,100989.09
2022-12-11T22:50:43.447Z,100989.19
2022-12-11T22:53:10.092Z,100979.00
2022-12-11T22:55:39.868Z,100985.97
2022-12-11T22:58:07.371Z,100979.06
2022-12-11T23:00:33.918Z,100989.44
2022-12-11T23:03:00.869Z,100992.22
2022-12-11T23:05:27.349Z,100994.91
2022-12-11T23:07:53.924Z,100996.69
2022-12-11T23:10:20.575Z,100998.31
2022-12-11T23:12:47.022Z,100987.25
2022-12-11T23:15:13.720Z,100996.63
2022-12-11T23:17:40.314Z,100998.47
2022-12-11T23:20:07.349Z,100990.06
2022-12-11T23:22:33.885Z,100992.06
2022-12-11T23:25:00.331Z,100990.66
2022-12-11T23:27:26.792Z,100994.06
2022-12-11T23:29:53.357Z,100991.84
2022-12-11T23:32:19.743Z,100993.06
2022-12-11T23:34:46.203Z,101004.72
2022-12-11T23:37:12.671Z,100990.25
2022-12-11T23:39:39.121Z,100993.09
2022-12-11T23:42:05.737Z,100987.53
2022-12-11T23:44:32.181Z,100994.63
2022-12-11T23:46:58.603Z,101002.66
2022-12-11T23:49:24.988Z,100996.13
2022-12-11T23:51:51.380Z,100998.97
2022-12-11T23:54:17.754Z,100989.63
2022-12-11T23:56:44.195Z,101002.53
2022-12-11T23:59:14.241Z,101009.56
